Time;durP1;ratioP1;P1;durP2;ratioP2;P2;SDS_P1;SDS_P2;PMS_P1;PMS_P2;Temp;Humidity;BMP_temperature;BMP_pressure;BME280_temperature;BME280_humidity;BME280_pressure;Samples;Min_cycle;Max_cycle;Signal;HPM_P1;HPM_P2
2021/06/08 00:00:56;;;;;;;14.95;10.25;;;;;;;13.56;57.32;100904.53;1692697;84;21095;-71
2021/06/08 00:03:23;;;;;;;18.77;11.68;;;;;;;13.69;57.37;100906.12;1701693;84;21034;-71
2021/06/08 00:05:49;;;;;;;19.73;10.65;;;;;;;13.77;57.43;100904.73;1701292;84;21491;-71
2021/06/08 00:08:15;;;;;;;19.77;9.73;;;;;;;13.81;57.52;100906.55;1685451;84;21542;-71
2021/06/08 00:10:41;;;;;;;14.58;9.70;;;;;;;13.91;57.65;100900.44;1700220;84;21023;-71
2021/06/08 00:13:07;;;;;;;12.53;9.28;;;;;;;14.10;57.75;100901.81;1682303;84;21159;-71
2021/06/08 00:15:33;;;;;;;13.85;9.08;;;;;;;14.17;57.84;100902.25;1699385;84;21018;-71
2021/06/08 00:17:59;;;;;;;14.70;9.03;;;;;;;14.31;57.97;100901.45;1701569;84;21106;-71
2021/06/08 00:20:25;;;;;;;13.45;7.75;;;;;;;14.42;58.10;100902.39;1700630;84;21503;-71
2021/06/08 00:22:51;;;;;;;12.73;8.43;;;;;;;14.54;58.19;100905.95;1677117;84;21058;-71
2021/06/08 00:25:17;;;;;;;10.65;7.92;;;;;;;14.66;58.35;100909.36;1686306;84;21696;-71
2021/06/08 00:35:30;;;;;;;12.40;7.05;;;;;;;15.06;58.79;100908.05;1673734;85;21066;-71
2021/06/08 00:37:57;;;;;;;10.75;7.00;;;;;;;15.22;58.95;100907.02;1682896;84;21056;-71
2021/06/08 00:40:26;;;;;;;11.95;7.33;;;;;;;15.28;59.04;100904.41;1678158;84;21201;-72
2021/06/08 00:50:36;;;;;;;14.23;7.03;;;;;;;15.33;59.15;100880.51;1680554;84;21464;-71
2021/06/08 00:53:03;;;;;;;15.43;7.87;;;;;;;15.33;59.18;100893.11;1701971;84;21480;-71
2021/06/08 00:55:29;;;;;;;10.35;7.53;;;;;;;15.31;59.19;100890.59;1676563;84;21546;-71
2021/06/08 00:57:55;;;;;;;13.08;8.75;;;;;;;15.29;59.17;100894.50;1673694;85;21463;-71
2021/06/08 01:00:21;;;;;;;23.52;12.30;;;;;;;15.23;59.20;100890.73;1687969;83;21078;-71
2021/06/08 01:02:48;;;;;;;15.15;10.90;;;;;;;15.03;59.34;100876.19;1700410;83;21010;-72
2021/06/08 01:05:14;;;;;;;18.20;10.18;;;;;;;15.01;59.28;100898.39;1667616;83;20999;-71
2021/06/08 01:07:41;;;;;;;14.87;10.30;;;;;;;14.88;59.37;100902.25;1715146;83;21133;-71
2021/06/08 01:10:09;;;;;;;14.53;9.75;;;;;;;14.78;59.47;100904.34;1716831;83;21106;-71
2021/06/08 01:12:36;;;;;;;15.03;9.80;;;;;;;14.68;59.55;100898.42;1724983;83;20996;-71
2021/06/08 01:15:03;;;;;;;14.60;9.53;;;;;;;14.62;59.65;100897.82;1725075;83;21031;-71
2021/06/08 01:17:29;;;;;;;19.90;13.38;;;;;;;14.57;59.74;100897.52;1717338;82;21039;-71
2021/06/08 01:19:59;;;;;;;17.70;11.25;;;;;;;14.50;59.85;100900.95;1696178;83;21133;-72
2021/06/08 01:22:25;;;;;;;13.30;9.70;;;;;;;14.43;59.93;100901.36;1703700;83;21051;-71
2021/06/08 01:24:52;;;;;;;14.35;9.85;;;;;;;14.35;60.04;100898.77;1724575;82;21054;-71
2021/06/08 01:27:19;;;;;;;17.05;9.45;;;;;;;14.22;60.42;100902.52;1719554;82;21640;-71
2021/06/08 01:29:45;;;;;;;19.45;11.00;;;;;;;14.22;60.42;100902.52;1696115;84;21082;-71
2021/06/08 01:32:11;;;;;;;15.85;9.20;;;;;;;14.20;60.74;100897.86;1698026;83;21183;-71
2021/06/08 01:34:38;;;;;;;16.37;9.70;;;;;;;14.17;61.41;100898.23;1695997;84;21051;-71
2021/06/08 01:37:04;;;;;;;20.00;11.80;;;;;;;14.17;61.41;100898.23;1698700;83;21066;-72
2021/06/08 01:39:32;;;;;;;21.10;11.38;;;;;;;14.14;61.74;100898.59;1724748;83;21012;-72
2021/06/08 01:41:58;;;;;;;26.77;11.03;;;;;;;14.10;61.78;100897.28;1723495;82;21055;-72
2021/06/08 01:44:24;;;;;;;35.13;11.15;;;;;;;14.11;62.28;100896.78;1695982;84;21144;-72
2021/06/08 01:46:50;;;;;;;26.12;10.45;;;;;;;14.11;62.28;100896.78;1707339;83;21027;-72
2021/06/08 01:49:16;;;;;;;15.78;10.45;;;;;;;14.01;62.21;100883.09;1725239;83;21065;-72
2021/06/08 01:52:20;;;;;;;20.70;10.78;;;;;;;14.04;62.33;100894.49;1709045;83;20999;-72
2021/06/08 01:55:13;;;;;;;16.65;10.60;;;;;;;13.95;62.49;100891.86;1721757;83;21043;-71
2021/06/08 01:57:46;;;;;;;18.40;11.28;;;;;;;13.85;62.60;100894.46;1700873;83;21154;-71
2021/06/08 02:00:29;;;;;;;19.75;10.95;;;;;;;13.77;62.71;100893.17;1720526;82;21633;-71
2021/06/08 02:03:20;;;;;;;16.77;11.25;;;;;;;13.73;62.81;100899.89;1695605;84;20987;-71
2021/06/08 02:06:00;;;;;;;20.30;10.78;;;;;;;13.67;62.91;100904.13;1693523;83;21074;-71
2021/06/08 02:08:43;;;;;;;27.30;14.30;;;;;;;13.60;63.00;100898.31;1673701;85;21483;-71
2021/06/08 02:11:13;;;;;;;21.33;11.97;;;;;;;13.54;63.13;100898.53;1673853;85;21038;-71
2021/06/08 02:14:06;;;;;;;23.40;11.30;;;;;;;13.53;63.25;100896.02;1695253;84;21133;-71
2021/06/08 02:16:48;;;;;;;22.70;11.35;;;;;;;13.56;63.37;100903.69;1672133;84;21471;-71
2021/06/08 02:19:14;;;;;;;18.98;11.10;;;;;;;13.53;63.51;100902.72;1673555;84;21171;-71
2021/06/08 02:21:42;;;;;;;23.40;11.70;;;;;;;13.55;63.66;100906.03;1674432;84;21029;-71
2021/06/08 02:24:10;;;;;;;23.98;11.43;;;;;;;13.54;63.72;100907.07;1673437;85;21847;-71
2021/06/08 02:26:39;;;;;;;20.90;11.22;;;;;;;13.50;63.80;100903.91;1698163;84;21038;-71
2021/06/08 02:29:05;;;;;;;19.27;12.30;;;;;;;13.45;63.90;100908.45;1695260;84;21054;-71
2021/06/08 02:31:31;;;;;;;23.65;12.47;;;;;;;13.38;63.98;100912.84;1678666;84;21066;-71
2021/06/08 02:33:57;;;;;;;22.32;12.28;;;;;;;13.36;64.06;100916.21;1644689;85;21021;-71
2021/06/08 02:36:23;;;;;;;37.05;13.68;;;;;;;13.33;64.12;100920.59;1645527;85;21137;-71
2021/06/08 02:38:49;;;;;;;21.97;12.40;;;;;;;13.29;64.20;100921.94;1673683;85;21184;-71
2021/06/08 02:41:15;;;;;;;23.70;12.50;;;;;;;13.26;64.27;100924.97;1687920;84;21046;-71
2021/06/08 02:43:41;;;;;;;25.20;12.88;;;;;;;13.20;64.36;100920.28;1673980;84;21483;-72
2021/06/08 02:46:08;;;;;;;27.62;15.18;;;;;;;13.17;64.43;100925.16;1692394;84;21496;-71
2021/06/08 02:48:36;;;;;;;28.55;14.58;;;;;;;13.12;64.53;100925.70;1701934;84;21136;-71
2021/06/08 02:51:02;;;;;;;26.42;15.50;;;;;;;13.12;64.58;100924.86;1684210;84;21515;-72
2021/06/08 02:53:28;;;;;;;27.58;11.45;;;;;;;13.09;64.72;100922.00;1673419;85;21065;-72
2021/06/08 02:55:54;;;;;;;42.93;13.62;;;;;;;13.09;64.80;100924.67;1680297;84;21009;-72
2021/06/08 02:58:20;;;;;;;32.33;14.00;;;;;;;13.13;64.96;100931.36;1673479;85;21117;-72
2021/06/08 03:00:46;;;;;;;30.15;14.07;;;;;;;13.19;65.08;100933.87;1683002;83;21083;-72
2021/06/08 03:03:17;;;;;;;24.70;13.22;;;;;;;13.21;65.16;100930.00;1701723;84;21535;-72
2021/06/08 03:05:51;;;;;;;26.42;14.05;;;;;;;13.27;65.25;100941.84;1700619;84;20955;-72
2021/06/08 03:08:23;;;;;;;25.70;12.80;;;;;;;13.33;65.28;100943.36;1691464;84;21030;-72
2021/06/08 03:10:50;;;;;;;17.30;11.22;;;;;;;13.34;65.31;100941.48;1675444;84;21073;-71
2021/06/08 03:13:16;;;;;;;24.72;11.45;;;;;;;13.33;65.38;100950.05;1677205;84;21176;-71
2021/06/08 03:15:46;;;;;;;19.27;12.28;;;;;;;13.38;65.41;100949.01;1688065;84;21507;-71
2021/06/08 03:18:15;;;;;;;;;;;;;;;13.40;65.43;100942.98;1647806;85;21531;-71
2021/06/08 03:20:55;;;;;;;48.52;32.38;;;;;;;13.42;65.42;100948.99;1673700;84;20175;-71
2021/06/08 03:23:21;;;;;;;25.90;14.58;;;;;;;13.41;65.46;100948.66;1673841;85;21026;-72
2021/06/08 03:25:47;;;;;;;19.40;11.25;;;;;;;13.46;65.53;100946.80;1634194;85;21402;-72
2021/06/08 03:28:13;;;;;;;25.95;11.03;;;;;;;14.09;65.97;100945.73;1673912;85;21042;-72
2021/06/08 03:30:39;;;;;;;26.85;10.78;;;;;;;15.06;65.92;100951.03;1643763;85;21481;-72
2021/06/08 03:33:05;;;;;;;23.15;11.08;;;;;;;16.00;65.61;100954.19;1687898;84;21484;-72
2021/06/08 03:35:31;;;;;;;31.80;11.68;;;;;;;16.85;65.18;100956.81;1671681;84;21570;-72
2021/06/08 03:37:57;;;;;;;16.30;11.33;;;;;;;17.58;64.72;100954.00;1671757;84;21110;-72
2021/06/08 03:40:24;;;;;;;27.80;11.53;;;;;;;18.32;64.19;100954.28;1701294;84;21042;-72
2021/06/08 03:42:51;;;;;;;18.42;9.83;;;;;;;18.83;63.63;100952.30;1697443;83;21539;-72
2021/06/08 03:45:17;;;;;;;22.45;10.93;;;;;;;19.24;63.00;100952.85;1682067;84;21058;-73
2021/06/08 03:47:44;;;;;;;19.62;11.00;;;;;;;19.95;62.27;100946.80;1676648;84;21019;-73
2021/06/08 03:50:14;;;;;;;23.50;11.63;;;;;;;20.49;61.44;100948.64;1673531;85;21126;-72
2021/06/08 03:52:42;;;;;;;;;;;;;;;20.82;60.45;100951.38;1676119;85;21470;-73
2021/06/08 03:55:09;;;;;;;23.73;11.45;;;;;;;21.25;59.71;100949.98;1680237;84;20167;-72
2021/06/08 03:57:39;;;;;;;23.20;11.88;;;;;;;21.55;58.89;100944.63;1702175;84;20979;-73
2021/06/08 04:00:04;;;;;;;18.75;10.95;;;;;;;22.05;57.96;100937.08;1689136;84;21037;-73
2021/06/08 04:02:30;;;;;;;20.15;11.57;;;;;;;22.44;56.97;100945.66;1699619;83;21145;-73
2021/06/08 04:04:56;;;;;;;20.27;11.43;;;;;;;22.94;55.96;100949.59;1701699;84;20975;-73
2021/06/08 04:07:22;;;;;;;19.87;11.00;;;;;;;23.27;55.01;100943.00;1696986;84;21026;-73
2021/06/08 04:09:49;;;;;;;19.00;11.63;;;;;;;23.65;54.03;100949.25;1673632;85;21066;-73
2021/06/08 04:12:22;;;;;;;27.93;11.75;;;;;;;23.96;53.00;100945.20;1679342;84;21031;-73
2021/06/08 04:14:49;;;;;;;18.25;10.80;;;;;;;24.30;51.99;100951.05;1695463;84;21132;-73
2021/06/08 04:17:16;;;;;;;20.37;10.70;;;;;;;24.55;51.01;100956.63;1693336;84;21002;-73
2021/06/08 04:19:44;;;;;;;26.60;11.30;;;;;;;24.94;49.89;100954.28;1673757;84;21538;-73
2021/06/08 04:22:10;;;;;;;21.95;11.78;;;;;;;25.32;48.90;100958.36;1678016;84;20979;-73
2021/06/08 04:24:36;;;;;;;17.00;13.45;;;;;;;25.74;47.76;100953.16;1699524;84;20996;-73
2021/06/08 04:27:04;;;;;;;18.42;11.03;;;;;;;25.82;46.52;100964.19;1673811;85;21507;-73
2021/06/08 04:29:30;;;;;;;16.37;10.48;;;;;;;25.64;45.70;100957.69;1688302;84;21384;-73
2021/06/08 04:31:56;;;;;;;26.02;11.78;;;;;;;25.06;45.23;100968.63;1701778;84;21010;-73
2021/06/08 04:34:22;;;;;;;16.70;10.45;;;;;;;24.45;45.44;100968.75;1688840;84;21050;-73
2021/06/08 04:36:49;;;;;;;19.87;10.35;;;;;;;23.99;45.44;100967.91;1677764;84;21038;-73
2021/06/08 04:39:16;;;;;;;18.25;9.68;;;;;;;23.74;45.32;100972.86;1701888;84;21553;-73
2021/06/08 04:41:42;;;;;;;12.20;8.50;;;;;;;23.65;45.27;100967.48;1676228;84;21510;-73
2021/06/08 04:44:08;;;;;;;16.23;9.20;;;;;;;23.62;45.00;100970.70;1671252;84;21542;-73
2021/06/08 04:46:38;;;;;;;18.20;7.30;;;;;;;23.56;44.84;100977.11;1701844;84;20938;-73
2021/06/08 04:49:04;;;;;;;11.20;6.78;;;;;;;23.56;44.61;100972.50;1702100;84;21014;-73
2021/06/08 04:51:32;;;;;;;18.35;7.15;;;;;;;23.39;44.38;100971.04;1677973;84;21384;-73
2021/06/08 04:53:58;;;;;;;8.05;6.72;;;;;;;22.91;44.18;100974.56;1692834;84;21096;-73
2021/06/08 04:56:24;;;;;;;8.60;6.65;;;;;;;22.75;44.14;100971.20;1673937;84;20997;-73
2021/06/08 04:58:50;;;;;;;11.45;7.37;;;;;;;22.67;43.98;100974.26;1673589;84;21034;-73
2021/06/08 05:01:38;;;;;;;8.98;7.58;;;;;;;22.47;43.87;100983.25;1685724;83;21029;-73
2021/06/08 05:04:08;;;;;;;13.03;8.28;;;;;;;22.58;43.82;100981.09;1692823;84;21204;-73
2021/06/08 05:06:45;;;;;;;10.70;8.20;;;;;;;22.49;43.74;100979.22;1675763;84;21022;-73
2021/06/08 05:09:14;;;;;;;10.55;6.95;;;;;;;22.49;43.53;100980.58;1691722;84;21088;-73
2021/06/08 05:11:52;;;;;;;13.13;7.05;;;;;;;22.50;43.49;100983.61;1692351;84;21163;-74
2021/06/08 05:14:18;;;;;;;12.43;7.97;;;;;;;22.31;43.34;100983.38;1675631;84;21037;-74
2021/06/08 05:16:46;;;;;;;12.65;7.95;;;;;;;22.51;43.27;100996.67;1673796;85;21305;-73
2021/06/08 05:19:12;;;;;;;8.90;7.65;;;;;;;22.77;43.12;100996.26;1646534;84;21098;-74
2021/06/08 05:21:38;;;;;;;15.23;7.15;;;;;;;22.98;42.89;100999.75;1680170;84;21543;-73
2021/06/08 05:24:05;;;;;;;12.40;6.47;;;;;;;23.04;42.70;101001.55;1684997;84;21565;-73
2021/06/08 05:26:31;;;;;;;12.18;7.33;;;;;;;23.01;42.64;101002.56;1672893;84;21026;-73
2021/06/08 05:28:57;;;;;;;12.15;6.85;;;;;;;23.10;42.65;101001.95;1694511;84;21858;-73
2021/06/08 05:31:23;;;;;;;10.63;7.78;;;;;;;23.04;42.37;101000.19;1701960;84;21029;-74
2021/06/08 05:33:53;;;;;;;11.15;7.58;;;;;;;22.92;42.43;100992.55;1693536;84;21022;-74
2021/06/08 05:36:19;;;;;;;;;;;;;;;23.11;42.31;100992.73;1647229;85;21030;-74
2021/06/08 05:38:46;;;;;;;9.20;7.00;;;;;;;23.00;42.32;100993.56;1683089;84;20755;-74
2021/06/08 05:41:14;;;;;;;8.45;6.47;;;;;;;22.98;42.36;100988.88;1701872;84;21312;-74
2021/06/08 05:43:41;;;;;;;13.55;7.87;;;;;;;23.11;42.36;100992.73;1701975;84;21567;-73
2021/06/08 05:46:08;;;;;;;12.78;7.35;;;;;;;23.20;42.20;101000.82;1702027;84;21523;-73
2021/06/08 05:48:36;;;;;;;16.23;7.37;;;;;;;23.30;42.20;100995.59;1701867;84;21034;-73
2021/06/08 05:51:03;;;;;;;10.72;6.30;;;;;;;23.47;42.10;100998.99;1690737;84;21558;-73
2021/06/08 05:53:29;;;;;;;13.00;7.15;;;;;;;23.59;42.09;101002.50;1674091;84;21277;-73
2021/06/08 05:55:57;;;;;;;12.58;6.83;;;;;;;23.73;42.02;100997.08;1671257;84;20987;-73
2021/06/08 05:58:28;;;;;;;9.30;6.20;;;;;;;23.70;41.93;101004.38;1691369;84;21419;-73
2021/06/08 06:00:54;;;;;;;8.28;6.40;;;;;;;23.84;41.96;100993.48;1675772;84;21514;-72
2021/06/08 06:03:22;;;;;;;9.18;6.20;;;;;;;23.81;41.78;101000.79;1714936;83;21001;-73
2021/06/08 06:05:48;;;;;;;8.30;6.22;;;;;;;23.84;41.82;101007.11;1700118;83;21442;-73
2021/06/08 06:08:15;;;;;;;13.28;7.37;;;;;;;23.88;41.70;101009.65;1707240;83;21108;-72
2021/06/08 06:10:43;;;;;;;11.50;7.45;;;;;;;23.84;41.54;101009.84;1688495;83;21018;-72
2021/06/08 06:13:25;;;;;;;10.08;6.78;;;;;;;23.77;41.83;101011.88;1718325;83;21094;-72
2021/06/08 06:15:51;;;;;;;7.53;6.67;;;;;;;23.69;41.85;101019.05;1670752;85;21571;-72
2021/06/08 06:18:18;;;;;;;11.38;5.87;;;;;;;23.64;41.89;101023.05;1720191;83;22258;-73
2021/06/08 06:20:46;;;;;;;11.53;6.60;;;;;;;23.55;42.05;101021.75;1703195;83;21006;-72
2021/06/08 06:23:17;;;;;;;10.63;6.50;;;;;;;23.59;42.19;101024.29;1702350;83;21552;-72
2021/06/08 06:25:43;;;;;;;9.08;5.95;;;;;;;23.72;42.13;101022.66;1722633;83;21074;-72
2021/06/08 06:28:15;;;;;;;9.38;5.67;;;;;;;23.63;42.01;101024.11;1698734;83;21117;-72
2021/06/08 06:30:41;;;;;;;10.38;5.90;;;;;;;23.65;42.07;101024.68;1722932;83;21617;-72
2021/06/08 06:33:07;;;;;;;18.75;5.87;;;;;;;23.64;42.02;101023.87;1711047;83;21062;-72
2021/06/08 06:35:34;;;;;;;9.45;5.72;;;;;;;23.68;41.98;101029.11;1719501;83;21050;-72
2021/06/08 06:38:04;;;;;;;12.63;5.25;;;;;;;23.75;41.86;101031.16;1703384;83;21019;-72
2021/06/08 06:40:30;;;;;;;6.87;4.12;;;;;;;23.91;41.83;101026.04;1724377;83;20923;-72
2021/06/08 06:43:02;;;;;;;7.62;4.00;;;;;;;24.08;41.85;101029.11;1706117;83;21726;-72
2021/06/08 06:45:26;;;;;;;10.78;4.87;;;;;;;23.87;41.63;101034.70;1715276;83;20987;-72
2021/06/08 06:47:53;;;;;;;14.78;4.60;;;;;;;24.04;41.69;101024.38;1715528;83;20987;-72
2021/06/08 06:50:24;;;;;;;6.65;5.15;;;;;;;24.07;41.30;101022.53;1717083;83;21050;-72
2021/06/08 06:52:55;;;;;;;8.60;4.42;;;;;;;24.13;41.25;101019.72;1727011;83;21063;-72
2021/06/08 06:55:15;;;;;;;13.25;4.85;;;;;;;24.40;41.19;101019.09;1702907;83;21691;-72
2021/06/08 06:57:42;;;;;;;14.90;4.53;;;;;;;24.50;40.97;101019.27;1698707;84;21402;-72
2021/06/08 07:00:09;;;;;;;11.35;5.00;;;;;;;24.50;40.78;101021.99;1698605;84;20987;-72
2021/06/08 07:02:35;;;;;;;10.82;4.80;;;;;;;24.53;40.76;101022.33;1704472;82;21071;-72
2021/06/08 07:05:02;;;;;;;10.25;4.55;;;;;;;24.62;40.93;101020.03;1691220;84;21009;-72
2021/06/08 07:07:28;;;;;;;8.55;4.37;;;;;;;24.72;40.89;101018.84;1686820;85;21592;-72
2021/06/08 07:09:54;;;;;;;8.08;4.92;;;;;;;24.68;40.79;101016.31;1690594;84;20991;-72
2021/06/08 07:12:20;;;;;;;8.13;4.22;;;;;;;24.71;40.92;101016.64;1686623;85;21074;-72
2021/06/08 07:14:47;;;;;;;9.55;4.95;;;;;;;25.00;40.91;101029.70;1678369;84;20999;-72
2021/06/08 07:17:13;;;;;;;8.08;4.70;;;;;;;25.13;40.76;101026.61;1676446;84;21026;-72
2021/06/08 07:19:39;;;;;;;6.30;4.37;;;;;;;25.29;40.77;101025.77;1692545;84;21886;-72
2021/06/08 07:22:06;;;;;;;10.30;4.70;;;;;;;25.28;40.70;101020.02;1678858;84;20982;-72
2021/06/08 07:24:32;;;;;;;10.80;4.60;;;;;;;25.38;40.63;101023.95;1686795;84;21026;-72
2021/06/08 07:26:58;;;;;;;6.55;4.20;;;;;;;25.35;40.31;101031.59;1673533;85;21006;-72
2021/06/08 07:29:24;;;;;;;17.82;4.60;;;;;;;25.33;40.31;101022.00;1673481;85;21042;-72
2021/06/08 07:32:00;;;;;;;8.28;3.77;;;;;;;25.35;40.29;101023.92;1673579;85;21830;-72
2021/06/08 07:34:43;;;;;;;7.33;4.22;;;;;;;25.55;40.32;101024.76;1673192;85;21459;-72
2021/06/08 07:37:14;;;;;;;8.28;4.05;;;;;;;25.67;40.33;101030.41;1673315;85;21069;-72
2021/06/08 07:39:49;;;;;;;9.58;3.83;;;;;;;25.78;40.26;101019.89;1672917;84;21069;-72
2021/06/08 07:42:41;;;;;;;6.97;3.22;;;;;;;25.80;39.98;101022.35;1673398;85;21796;-72
2021/06/08 07:45:13;;;;;;;8.75;4.20;;;;;;;26.08;39.96;101024.04;1673056;85;21821;-72
2021/06/08 07:47:39;;;;;;;5.37;4.03;;;;;;;26.14;39.60;101025.20;1673602;84;21041;-72
2021/06/08 07:50:08;;;;;;;5.67;2.70;;;;;;;25.83;39.45;101027.30;1673470;85;21005;-72
2021/06/08 07:52:34;;;;;;;4.67;3.20;;;;;;;25.83;39.10;101027.30;1673479;85;21003;-72
2021/06/08 07:55:00;;;;;;;4.50;3.20;;;;;;;25.95;38.87;101033.48;1673397;85;21062;-72
2021/06/08 07:57:27;;;;;;;5.10;3.58;;;;;;;26.07;38.57;101032.78;1673021;84;21988;-72
2021/06/08 07:59:53;;;;;;;19.52;4.92;;;;;;;25.88;38.23;101032.84;1673330;85;21090;-72
2021/06/08 08:02:20;;;;;;;97.80;11.68;;;;;;;25.89;38.27;101037.24;1672251;83;21538;-72
2021/06/08 08:04:50;;;;;;;8.63;3.67;;;;;;;26.26;38.29;101032.75;1668046;85;20998;-72
2021/06/08 08:07:17;;;;;;;5.10;3.58;;;;;;;26.51;38.10;101036.82;1667999;84;20908;-72
2021/06/08 08:09:43;;;;;;;8.33;3.60;;;;;;;26.64;37.99;101037.75;1668359;85;22037;-72
2021/06/08 08:12:10;;;;;;;9.78;3.45;;;;;;;26.60;37.82;101038.02;1668495;86;21010;-72
2021/06/08 08:14:36;;;;;;;5.75;2.95;;;;;;;26.53;37.66;101034.67;1667763;86;21010;-72
2021/06/08 08:17:02;;;;;;;3.72;2.45;;;;;;;26.53;37.46;101037.41;1668278;86;21069;-72
2021/06/08 08:19:28;;;;;;;7.00;2.90;;;;;;;26.57;37.09;101037.14;1667999;86;21054;-72
2021/06/08 08:21:54;;;;;;;9.28;3.02;;;;;;;26.60;36.45;101031.17;1667975;86;21870;-72
2021/06/08 08:24:20;;;;;;;4.17;3.27;;;;;;;26.44;36.36;101036.20;1668266;85;21054;-72
2021/06/08 08:26:46;;;;;;;7.42;3.55;;;;;;;26.56;36.23;101039.62;1687182;84;21054;-72
2021/06/08 08:29:12;;;;;;;7.17;3.30;;;;;;;26.56;36.29;101040.98;1691038;84;21431;-72
2021/06/08 08:31:38;;;;;;;5.92;3.08;;;;;;;26.62;36.37;101039.94;1675450;84;21006;-72
2021/06/08 08:34:05;;;;;;;11.90;3.20;;;;;;;26.77;36.49;101039.54;1668323;85;21920;-72
2021/06/08 08:36:38;;;;;;;7.12;3.52;;;;;;;26.79;36.30;101031.05;1668284;86;21014;-72
2021/06/08 08:39:09;;;;;;;3.90;2.92;;;;;;;26.83;35.89;101037.69;1668477;84;20995;-72
2021/06/08 08:41:35;;;;;;;4.67;3.10;;;;;;;26.85;35.87;101037.44;1668494;86;20986;-72
2021/06/08 08:44:02;;;;;;;31.02;5.40;;;;;;;26.65;35.52;101036.14;1668631;85;21022;-72
2021/06/08 08:46:28;;;;;;;9.05;2.80;;;;;;;26.72;35.56;101044.13;1668707;85;21951;-72
2021/06/08 08:48:56;;;;;;;5.58;2.50;;;;;;;26.77;35.32;101040.91;1668106;85;20991;-72
2021/06/08 08:51:25;;;;;;;2.95;2.55;;;;;;;26.62;35.11;101041.30;1668476;85;21085;-72
2021/06/08 08:53:56;;;;;;;9.63;2.92;;;;;;;26.60;35.01;101039.39;1668689;86;21010;-72
2021/06/08 08:56:34;;;;;;;6.75;2.90;;;;;;;26.63;34.71;101037.49;1668667;85;21014;-72
2021/06/08 08:59:07;;;;;;;6.35;2.58;;;;;;;26.46;34.21;101034.05;1668488;85;21629;-72
2021/06/08 09:01:35;;;;;;;6.37;3.22;;;;;;;26.28;34.22;101033.31;1666646;86;21010;-72
2021/06/08 09:04:02;;;;;;;6.00;2.98;;;;;;;26.35;34.28;101036.41;1672165;84;21002;-72
2021/06/08 09:06:28;;;;;;;4.62;2.90;;;;;;;26.36;34.24;101034.76;1673555;85;21431;-72
2021/06/08 09:08:54;;;;;;;5.30;3.05;;;;;;;26.41;34.36;101028.52;1673473;85;21010;-72
2021/06/08 09:11:20;;;;;;;5.40;3.10;;;;;;;26.38;34.24;101029.05;1673662;85;21935;-72
2021/06/08 09:13:47;;;;;;;6.60;2.80;;;;;;;26.32;34.41;101036.36;1673481;85;21419;-72
2021/06/08 09:16:16;;;;;;;5.85;3.20;;;;;;;26.39;34.45;101027.97;1673636;85;21002;-72
2021/06/08 09:18:42;;;;;;;5.30;2.87;;;;;;;26.64;34.54;101029.00;1673664;85;21475;-72
2021/06/08 09:21:25;;;;;;;6.95;3.10;;;;;;;26.62;34.29;101031.73;1673636;85;21061;-72
2021/06/08 09:23:51;;;;;;;5.83;3.50;;;;;;;26.50;34.28;101022.84;1673597;85;21858;-72
2021/06/08 09:26:18;;;;;;;6.97;2.40;;;;;;;26.59;34.35;101028.98;1673416;85;21434;-72
2021/06/08 09:28:45;;;;;;;7.87;2.85;;;;;;;26.62;34.33;101024.34;1673297;85;20994;-71
2021/06/08 09:31:24;;;;;;;8.38;2.70;;;;;;;26.61;34.23;101021.32;1673501;84;21079;-72
2021/06/08 09:33:55;;;;;;;5.72;3.67;;;;;;;26.53;33.94;101027.26;1645038;85;21070;-71
2021/06/08 09:36:23;;;;;;;6.85;2.72;;;;;;;26.51;34.10;101029.98;1673442;85;21753;-71
2021/06/08 09:38:54;;;;;;;5.92;3.15;;;;;;;26.56;34.16;101032.78;1673497;85;20970;-71
2021/06/08 09:41:27;;;;;;;5.55;2.95;;;;;;;26.61;33.97;101023.23;1673478;84;21010;-72
2021/06/08 09:44:09;;;;;;;4.45;2.90;;;;;;;26.63;34.00;101022.44;1673838;85;21066;-72
2021/06/08 09:46:50;;;;;;;4.78;2.70;;;;;;;26.83;34.13;101022.63;1673859;85;21081;-72
2021/06/08 09:49:33;;;;;;;4.62;2.65;;;;;;;26.96;33.97;101016.70;1673149;85;21793;-71
2021/06/08 09:52:04;;;;;;;7.80;3.33;;;;;;;26.71;33.55;101024.14;1673447;84;21021;-71
2021/06/08 09:54:37;;;;;;;9.95;2.70;;;;;;;26.64;33.56;101024.90;1671729;85;21013;-71
2021/06/08 09:57:26;;;;;;;7.22;2.47;;;;;;;26.83;33.67;101015.79;1673395;85;21427;-72
2021/06/08 09:59:56;;;;;;;8.40;2.95;;;;;;;26.88;33.59;101014.47;1673811;85;20986;-72
2021/06/08 10:02:48;;;;;;;5.83;3.08;;;;;;;26.79;33.45;101017.36;1673695;85;21918;-71
2021/06/08 10:05:27;;;;;;;6.92;3.12;;;;;;;26.64;33.35;101009.84;1672984;85;20998;-71
2021/06/08 10:08:04;;;;;;;3.15;2.55;;;;;;;26.73;33.47;101019.78;1673701;85;20991;-71
2021/06/08 10:10:45;;;;;;;9.03;3.30;;;;;;;26.77;33.50;101010.80;1673266;85;21022;-71
2021/06/08 10:13:16;;;;;;;10.88;3.72;;;;;;;26.88;33.66;101017.75;1681141;82;21022;-71
2021/06/08 10:16:00;;;;;;;9.78;3.12;;;;;;;26.76;33.72;101013.78;1658031;82;22066;-71
2021/06/08 10:18:28;;;;;;;8.73;3.25;;;;;;;26.73;33.77;101010.20;1697406;82;21047;-71
2021/06/08 10:20:56;;;;;;;4.40;2.70;;;;;;;26.84;33.81;101005.12;1700467;82;21619;-72
2021/06/08 10:23:29;;;;;;;4.90;2.80;;;;;;;26.94;33.78;101009.84;1706190;82;21051;-72
2021/06/08 10:26:02;;;;;;;5.85;3.17;;;;;;;26.92;33.69;101005.98;1679281;84;22442;-73
2021/06/08 10:28:28;;;;;;;10.00;3.33;;;;;;;26.88;33.72;101011.73;1686087;84;22338;-71
2021/06/08 10:30:56;;;;;;;4.03;2.90;;;;;;;26.80;33.69;101004.80;1686389;84;21018;-71
2021/06/08 10:33:24;;;;;;;5.53;3.30;;;;;;;26.88;33.65;101006.26;1697166;84;21010;-72
2021/06/08 10:35:51;;;;;;;9.53;3.30;;;;;;;26.93;33.67;101002.71;1688069;83;21029;-71
2021/06/08 10:38:17;;;;;;;7.33;3.50;;;;;;;27.04;33.64;100995.68;1673463;85;21451;-72
2021/06/08 10:40:46;;;;;;;7.78;3.42;;;;;;;26.95;33.60;101005.45;1675341;84;21707;-71
2021/06/08 10:43:20;;;;;;;5.92;2.75;;;;;;;26.86;33.43;100992.53;1679333;84;21456;-72
2021/06/08 10:45:46;;;;;;;5.40;2.90;;;;;;;26.77;33.55;100996.28;1701782;84;21029;-72
2021/06/08 10:48:17;;;;;;;10.13;3.40;;;;;;;26.79;33.48;100990.82;1701423;84;21057;-71
2021/06/08 10:50:46;;;;;;;7.28;3.45;;;;;;;26.87;33.43;100989.55;1701797;84;21030;-71
2021/06/08 10:53:31;;;;;;;8.63;3.45;;;;;;;26.91;33.61;100997.52;1701249;84;21938;-71
2021/06/08 10:55:58;;;;;;;7.83;3.80;;;;;;;27.01;33.71;100988.00;1672565;84;21049;-72
2021/06/08 10:58:55;;;;;;;6.62;2.90;;;;;;;27.13;33.79;100987.77;1694994;84;21465;-72
2021/06/08 11:01:40;;;;;;;9.23;3.35;;;;;;;27.18;33.74;100990.55;1701116;84;21009;-72
2021/06/08 11:04:18;;;;;;;6.28;3.40;;;;;;;27.26;33.65;100986.78;1698610;83;21055;-71
2021/06/08 11:06:56;;;;;;;9.58;4.08;;;;;;;27.20;33.44;100985.63;1696346;84;21918;-71
2021/06/08 11:09:34;;;;;;;5.70;3.65;;;;;;;27.12;33.45;100984.23;1696262;84;21534;-72
2021/06/08 11:12:10;;;;;;;4.62;2.50;;;;;;;27.20;33.46;100980.14;1696768;84;21014;-71
2021/06/08 11:14:45;;;;;;;7.08;3.02;;;;;;;27.20;33.25;100978.78;1693997;84;21423;-72
2021/06/08 11:17:33;;;;;;;5.60;2.92;;;;;;;27.09;33.13;100982.00;1696548;84;21096;-72
2021/06/08 11:20:16;;;;;;;8.97;3.07;;;;;;;27.16;33.13;100985.91;1696436;84;21720;-71
2021/06/08 11:22:50;;;;;;;9.43;3.65;;;;;;;27.12;33.30;100982.87;1696666;84;21025;-71
2021/06/08 11:25:41;;;;;;;8.20;3.02;;;;;;;27.27;33.32;100977.99;1696441;84;21047;-71
2021/06/08 11:28:17;;;;;;;14.05;3.17;;;;;;;27.31;33.01;100975.84;1696385;83;21010;-71
2021/06/08 11:30:59;;;;;;;4.08;2.58;;;;;;;27.15;32.88;100972.75;1696544;84;21545;-72
2021/06/08 11:33:38;;;;;;;5.47;2.65;;;;;;;27.12;32.82;100963.70;1696446;84;21875;-71
2021/06/08 11:36:30;;;;;;;12.40;3.30;;;;;;;27.14;32.81;100963.41;1696543;84;21073;-72
2021/06/08 11:39:22;;;;;;;6.87;2.83;;;;;;;27.24;32.87;100965.66;1696605;84;21379;-71
2021/06/08 11:42:00;;;;;;;10.30;2.95;;;;;;;27.17;32.69;100967.81;1696507;84;21047;-72
2021/06/08 11:44:26;;;;;;;5.00;2.83;;;;;;;27.08;32.53;100965.31;1696613;84;21010;-72
2021/06/08 11:47:00;;;;;;;6.58;3.70;;;;;;;27.04;32.57;100962.82;1696450;84;21491;-71